sensor_id;sensor_type;location;lat;lon;timestamp;temperature;humidity
1391;DHT22;690;51.454;7.194;2024-02-28T00:02:00;-1.50;1.00
1391;DHT22;690;51.454;7.194;2024-02-28T00:04:29;-1.50;1.00
1391;DHT22;690;51.454;7.194;2024-02-28T00:06:56;-1.60;1.00
1391;DHT22;690;51.454;7.194;2024-02-28T00:09:23;-1.60;1.00
1391;DHT22;690;51.454;7.194;2024-02-28T00:11:49;-1.60;99.90
1391;DHT22;690;51.454;7.194;2024-02-28T00:14:16;-1.60;99.90
1391;DHT22;690;51.454;7.194;2024-02-28T00:16:44;-1.60;99.90
1391;DHT22;690;51.454;7.194;2024-02-28T00:19:11;-1.60;99.90
1391;DHT22;690;51.454;7.194;2024-02-28T00:21:40;-1.70;99.90
1391;DHT22;690;51.454;7.194;2024-02-28T00:24:08;-1.70;99.90
1391;DHT22;690;51.454;7.194;2024-02-28T00:26:35;-1.70;99.90
1391;DHT22;690;51.454;7.194;2024-02-28T00:29:03;-1.70;99.90
1391;DHT22;690;51.454;7.194;2024-02-28T00:31:31;-1.70;99.90
1391;DHT22;690;51.454;7.194;2024-02-28T00:33:58;-1.80;99.90
1391;DHT22;690;51.454;7.194;2024-02-28T00:36:24;-1.80;99.90
1391;DHT22;690;51.454;7.194;2024-02-28T00:38:53;-1.80;99.90
1391;DHT22;690;51.454;7.194;2024-02-28T00:41:19;-1.80;99.90
1391;DHT22;690;51.454;7.194;2024-02-28T00:43:46;-1.80;99.90
1391;DHT22;690;51.454;7.194;2024-02-28T00:46:13;-1.80;99.90
1391;DHT22;690;51.454;7.194;2024-02-28T00:48:40;-1.80;99.90
1391;DHT22;690;51.454;7.194;2024-02-28T00:51:07;-1.90;99.90
1391;DHT22;690;51.454;7.194;2024-02-28T00:53:34;-1.90;99.90
1391;DHT22;690;51.454;7.194;2024-02-28T00:56:03;-1.90;99.90
1391;DHT22;690;51.454;7.194;2024-02-28T00:58:30;-1.90;1.00
1391;DHT22;690;51.454;7.194;2024-02-28T01:00:57;-1.90;1.00
1391;DHT22;690;51.454;7.194;2024-02-28T01:03:23;-1.90;1.00
1391;DHT22;690;51.454;7.194;2024-02-28T01:05:51;-1.90;1.00
1391;DHT22;690;51.454;7.194;2024-02-28T01:08:18;-1.90;1.00
1391;DHT22;690;51.454;7.194;2024-02-28T01:10:45;-1.90;1.00
1391;DHT22;690;51.454;7.194;2024-02-28T01:13:13;-1.90;1.00
1391;DHT22;690;51.454;7.194;2024-02-28T01:15:40;-1.90;1.00
1391;DHT22;690;51.454;7.194;2024-02-28T01:18:08;-1.90;1.00
1391;DHT22;690;51.454;7.194;2024-02-28T01:20:35;-2.00;1.00
1391;DHT22;690;51.454;7.194;2024-02-28T01:23:02;-1.90;1.00
1391;DHT22;690;51.454;7.194;2024-02-28T01:25:29;-1.90;1.00
1391;DHT22;690;51.454;7.194;2024-02-28T01:27:56;-2.00;1.00
1391;DHT22;690;51.454;7.194;2024-02-28T01:30:25;-2.00;1.00
1391;DHT22;690;51.454;7.194;2024-02-28T01:32:52;-2.00;1.00
1391;DHT22;690;51.454;7.194;2024-02-28T01:35:19;-2.00;1.00
1391;DHT22;690;51.454;7.194;2024-02-28T01:37:46;-1.90;1.00
1391;DHT22;690;51.454;7.194;2024-02-28T01:40:13;-1.90;1.00
1391;DHT22;690;51.454;7.194;2024-02-28T01:42:40;-1.90;1.00
1391;DHT22;690;51.454;7.194;2024-02-28T01:45:10;-1.90;1.00
1391;DHT22;690;51.454;7.194;2024-02-28T01:47:41;-1.90;1.00
1391;DHT22;690;51.454;7.194;2024-02-28T01:50:09;-1.90;1.00
1391;DHT22;690;51.454;7.194;2024-02-28T01:52:38;-1.90;1.00
1391;DHT22;690;51.454;7.194;2024-02-28T01:55:06;-1.90;1.00
1391;DHT22;690;51.454;7.194;2024-02-28T01:57:33;-1.90;1.00
1391;DHT22;690;51.454;7.194;2024-02-28T02:00:03;-2.00;1.00
1391;DHT22;690;51.454;7.194;2024-02-28T02:02:30;-2.00;1.00
1391;DHT22;690;51.454;7.194;2024-02-28T02:04:58;-2.00;1.00
1391;DHT22;690;51.454;7.194;2024-02-28T02:07:25;-2.00;1.00
1391;DHT22;690;51.454;7.194;2024-02-28T02:09:52;-2.00;1.00
1391;DHT22;690;51.454;7.194;2024-02-28T02:12:19;-2.00;1.00
1391;DHT22;690;51.454;7.194;2024-02-28T02:14:47;-2.00;1.00
1391;DHT22;690;51.454;7.194;2024-02-28T02:17:16;-2.00;1.00
1391;DHT22;690;51.454;7.194;2024-02-28T02:19:43;-1.90;1.00
1391;DHT22;690;51.454;7.194;2024-02-28T02:22:13;-2.00;1.00
1391;DHT22;690;51.454;7.194;2024-02-28T02:24:41;-1.90;1.00
1391;DHT22;690;51.454;7.194;2024-02-28T02:27:09;-2.00;1.00
1391;DHT22;690;51.454;7.194;2024-02-28T02:29:36;-1.90;1.00
1391;DHT22;690;51.454;7.194;2024-02-28T02:32:03;-1.90;1.00
1391;DHT22;690;51.454;7.194;2024-02-28T02:34:30;-1.90;74.70
1391;DHT22;690;51.454;7.194;2024-02-28T02:36:56;-1.70;99.90
1391;DHT22;690;51.454;7.194;2024-02-28T02:39:23;-1.60;99.90
1391;DHT22;690;51.454;7.194;2024-02-28T02:41:52;-1.50;99.90
1391;DHT22;690;51.454;7.194;2024-02-28T02:44:18;-1.30;99.90
1391;DHT22;690;51.454;7.194;2024-02-28T02:46:45;-1.20;99.90
1391;DHT22;690;51.454;7.194;2024-02-28T02:49:13;-1.10;99.90
1391;DHT22;690;51.454;7.194;2024-02-28T02:51:40;-1.00;99.90
1391;DHT22;690;51.454;7.194;2024-02-28T02:54:08;-0.90;99.90
1391;DHT22;690;51.454;7.194;2024-02-28T02:56:36;-0.80;99.90
1391;DHT22;690;51.454;7.194;2024-02-28T02:59:07;-0.70;99.90
1391;DHT22;690;51.454;7.194;2024-02-28T03:01:34;-0.60;99.90
1391;DHT22;690;51.454;7.194;2024-02-28T03:04:01;-0.50;99.90
1391;DHT22;690;51.454;7.194;2024-02-28T03:06:28;-0.40;99.90
1391;DHT22;690;51.454;7.194;2024-02-28T03:08:54;-0.30;99.90
1391;DHT22;690;51.454;7.194;2024-02-28T03:11:21;-0.20;99.90
1391;DHT22;690;51.454;7.194;2024-02-28T03:13:48;-0.20;99.90
1391;DHT22;690;51.454;7.194;2024-02-28T03:16:16;-0.10;99.90
1391;DHT22;690;51.454;7.194;2024-02-28T03:18:43;0.00;99.90
1391;DHT22;690;51.454;7.194;2024-02-28T03:21:10;0.00;99.90
1391;DHT22;690;51.454;7.194;2024-02-28T03:23:37;0.00;1.00
1391;DHT22;690;51.454;7.194;2024-02-28T03:26:04;0.10;1.00
1391;DHT22;690;51.454;7.194;2024-02-28T03:28:31;0.20;1.00
1391;DHT22;690;51.454;7.194;2024-02-28T03:30:58;0.20;1.00
1391;DHT22;690;51.454;7.194;2024-02-28T03:33:26;0.20;1.00
1391;DHT22;690;51.454;7.194;2024-02-28T03:35:54;0.20;99.90
1391;DHT22;690;51.454;7.194;2024-02-28T03:38:21;0.20;1.00
1391;DHT22;690;51.454;7.194;2024-02-28T03:40:48;0.30;1.00
1391;DHT22;690;51.454;7.194;2024-02-28T03:43:15;0.30;1.00
1391;DHT22;690;51.454;7.194;2024-02-28T03:45:42;0.30;1.00
1391;DHT22;690;51.454;7.194;2024-02-28T03:48:09;0.30;1.00
1391;DHT22;690;51.454;7.194;2024-02-28T03:50:37;0.30;1.00
1391;DHT22;690;51.454;7.194;2024-02-28T03:53:04;0.40;1.00
1391;DHT22;690;51.454;7.194;2024-02-28T03:55:31;0.40;1.00
1391;DHT22;690;51.454;7.194;2024-02-28T03:57:58;0.40;1.00
1391;DHT22;690;51.454;7.194;2024-02-28T04:00:25;0.50;1.00
1391;DHT22;690;51.454;7.194;2024-02-28T04:02:52;0.50;1.00
1391;DHT22;690;51.454;7.194;2024-02-28T04:05:19;0.50;1.00
1391;DHT22;690;51.454;7.194;2024-02-28T04:07:49;0.60;1.00
1391;DHT22;690;51.454;7.194;2024-02-28T04:10:16;0.60;1.00
1391;DHT22;690;51.454;7.194;2024-02-28T04:12:43;0.70;1.00
1391;DHT22;690;51.454;7.194;2024-02-28T04:15:11;0.70;1.00
1391;DHT22;690;51.454;7.194;2024-02-28T04:17:38;0.70;1.00
1391;DHT22;690;51.454;7.194;2024-02-28T04:20:08;0.70;1.00
1391;DHT22;690;51.454;7.194;2024-02-28T04:22:36;0.80;1.00
1391;DHT22;690;51.454;7.194;2024-02-28T04:25:04;0.80;1.00
1391;DHT22;690;51.454;7.194;2024-02-28T04:27:32;0.80;1.00
1391;DHT22;690;51.454;7.194;2024-02-28T04:29:59;0.90;1.00
1391;DHT22;690;51.454;7.194;2024-02-28T04:32:26;0.90;1.00
1391;DHT22;690;51.454;7.194;2024-02-28T04:34:53;0.90;1.00
1391;DHT22;690;51.454;7.194;2024-02-28T04:37:20;1.00;1.00
1391;DHT22;690;51.454;7.194;2024-02-28T04:39:47;0.90;1.00
1391;DHT22;690;51.454;7.194;2024-02-28T04:42:16;1.00;1.00
1391;DHT22;690;51.454;7.194;2024-02-28T04:44:43;1.00;1.00
1391;DHT22;690;51.454;7.194;2024-02-28T04:47:09;1.00;1.00
1391;DHT22;690;51.454;7.194;2024-02-28T04:49:37;1.10;1.00
1391;DHT22;690;51.454;7.194;2024-02-28T04:52:05;1.10;1.00
1391;DHT22;690;51.454;7.194;2024-02-28T04:54:32;1.20;1.00
1391;DHT22;690;51.454;7.194;2024-02-28T04:56:59;1.20;1.00
1391;DHT22;690;51.454;7.194;2024-02-28T04:59:27;1.20;1.00
1391;DHT22;690;51.454;7.194;2024-02-28T05:01:54;1.30;1.00
1391;DHT22;690;51.454;7.194;2024-02-28T05:04:21;1.30;1.00
1391;DHT22;690;51.454;7.194;2024-02-28T05:06:49;1.40;1.00
1391;DHT22;690;51.454;7.194;2024-02-28T05:09:16;1.40;1.00
1391;DHT22;690;51.454;7.194;2024-02-28T05:11:44;1.40;1.00
1391;DHT22;690;51.454;7.194;2024-02-28T05:14:11;1.40;1.00
1391;DHT22;690;51.454;7.194;2024-02-28T05:16:39;1.40;1.00
1391;DHT22;690;51.454;7.194;2024-02-28T05:19:06;1.50;1.00
1391;DHT22;690;51.454;7.194;2024-02-28T05:21:39;1.50;1.00
1391;DHT22;690;51.454;7.194;2024-02-28T05:24:06;1.50;1.00
1391;DHT22;690;51.454;7.194;2024-02-28T05:26:34;1.50;1.00
1391;DHT22;690;51.454;7.194;2024-02-28T05:29:02;1.60;27.60
1391;DHT22;690;51.454;7.194;2024-02-28T05:31:30;1.60;41.40
1391;DHT22;690;51.454;7.194;2024-02-28T05:34:00;1.70;81.10
1391;DHT22;690;51.454;7.194;2024-02-28T05:36:28;1.70;99.90
1391;DHT22;690;51.454;7.194;2024-02-28T05:38:56;1.80;99.90
1391;DHT22;690;51.454;7.194;2024-02-28T05:41:24;1.80;99.90
1391;DHT22;690;51.454;7.194;2024-02-28T05:43:52;1.80;99.90
1391;DHT22;690;51.454;7.194;2024-02-28T05:46:19;1.80;99.90
1391;DHT22;690;51.454;7.194;2024-02-28T05:48:47;1.90;99.90
1391;DHT22;690;51.454;7.194;2024-02-28T05:51:16;1.90;99.90
1391;DHT22;690;51.454;7.194;2024-02-28T05:53:43;1.90;99.90
1391;DHT22;690;51.454;7.194;2024-02-28T05:56:10;2.00;99.90
1391;DHT22;690;51.454;7.194;2024-02-28T05:58:40;2.00;99.90
1391;DHT22;690;51.454;7.194;2024-02-28T06:01:08;2.00;99.90
1391;DHT22;690;51.454;7.194;2024-02-28T06:03:35;2.00;99.90
1391;DHT22;690;51.454;7.194;2024-02-28T06:06:03;2.10;99.90
1391;DHT22;690;51.454;7.194;2024-02-28T06:08:33;2.10;99.90
1391;DHT22;690;51.454;7.194;2024-02-28T06:11:00;2.10;99.90
1391;DHT22;690;51.454;7.194;2024-02-28T06:13:27;2.10;99.90
1391;DHT22;690;51.454;7.194;2024-02-28T06:15:54;2.10;99.90
1391;DHT22;690;51.454;7.194;2024-02-28T06:18:21;2.20;99.90
1391;DHT22;690;51.454;7.194;2024-02-28T06:20:52;2.20;99.90
1391;DHT22;690;51.454;7.194;2024-02-28T06:23:19;2.30;99.90
1391;DHT22;690;51.454;7.194;2024-02-28T06:25:47;2.30;99.90
1391;DHT22;690;51.454;7.194;2024-02-28T06:28:14;2.30;99.90
1391;DHT22;690;51.454;7.194;2024-02-28T06:30:42;2.30;99.90
1391;DHT22;690;51.454;7.194;2024-02-28T06:33:09;2.40;99.90
1391;DHT22;690;51.454;7.194;2024-02-28T06:35:36;2.40;99.90
1391;DHT22;690;51.454;7.194;2024-02-28T06:38:03;2.50;99.90
1391;DHT22;690;51.454;7.194;2024-02-28T06:40:30;2.50;99.90
1391;DHT22;690;51.454;7.194;2024-02-28T06:42:58;2.60;99.90
1391;DHT22;690;51.454;7.194;2024-02-28T06:45:25;2.50;99.90
1391;DHT22;690;51.454;7.194;2024-02-28T06:47:52;2.60;99.90
1391;DHT22;690;51.454;7.194;2024-02-28T06:50:19;2.70;99.90
1391;DHT22;690;51.454;7.194;2024-02-28T06:52:46;2.70;99.90
1391;DHT22;690;51.454;7.194;2024-02-28T06:55:13;2.80;99.90
1391;DHT22;690;51.454;7.194;2024-02-28T06:57:41;2.80;99.90
1391;DHT22;690;51.454;7.194;2024-02-28T07:00:10;2.80;97.20
1391;DHT22;690;51.454;7.194;2024-02-28T07:02:38;2.90;36.10
1391;DHT22;690;51.454;7.194;2024-02-28T07:05:05;2.90;99.90
1391;DHT22;690;51.454;7.194;2024-02-28T07:07:33;2.90;99.90
1391;DHT22;690;51.454;7.194;2024-02-28T07:10:02;3.00;99.90
1391;DHT22;690;51.454;7.194;2024-02-28T07:12:29;3.00;99.90
1391;DHT22;690;51.454;7.194;2024-02-28T07:14:56;3.00;99.90
1391;DHT22;690;51.454;7.194;2024-02-28T07:17:25;3.00;99.90
1391;DHT22;690;51.454;7.194;2024-02-28T07:19:51;3.00;70.30
1391;DHT22;690;51.454;7.194;2024-02-28T07:22:18;3.10;15.20
1391;DHT22;690;51.454;7.194;2024-02-28T07:24:46;3.10;82.70
1391;DHT22;690;51.454;7.194;2024-02-28T07:27:13;3.10;99.90
1391;DHT22;690;51.454;7.194;2024-02-28T07:29:41;3.10;99.90
1391;DHT22;690;51.454;7.194;2024-02-28T07:32:08;3.20;69.10
1391;DHT22;690;51.454;7.194;2024-02-28T07:34:36;3.20;90.20
1391;DHT22;690;51.454;7.194;2024-02-28T07:37:03;3.30;12.50
1391;DHT22;690;51.454;7.194;2024-02-28T07:39:30;3.20;92.10
1391;DHT22;690;51.454;7.194;2024-02-28T07:41:57;3.30;80.40
1391;DHT22;690;51.454;7.194;2024-02-28T07:44:24;3.30;91.20
1391;DHT22;690;51.454;7.194;2024-02-28T07:46:51;3.40;1.00
1391;DHT22;690;51.454;7.194;2024-02-28T07:49:18;3.40;18.50
1391;DHT22;690;51.454;7.194;2024-02-28T07:51:46;3.50;93.90
1391;DHT22;690;51.454;7.194;2024-02-28T07:54:13;3.60;99.90
1391;DHT22;690;51.454;7.194;2024-02-28T07:56:40;3.60;1.00
1391;DHT22;690;51.454;7.194;2024-02-28T07:59:07;3.70;1.00
1391;DHT22;690;51.454;7.194;2024-02-28T08:01:33;3.60;1.00
1391;DHT22;690;51.454;7.194;2024-02-28T08:04:01;3.60;1.00
1391;DHT22;690;51.454;7.194;2024-02-28T08:06:28;3.60;1.00
1391;DHT22;690;51.454;7.194;2024-02-28T08:08:58;3.70;1.00
1391;DHT22;690;51.454;7.194;2024-02-28T08:11:24;3.70;1.00
1391;DHT22;690;51.454;7.194;2024-02-28T08:13:51;3.70;1.00
1391;DHT22;690;51.454;7.194;2024-02-28T08:16:18;3.80;1.00
1391;DHT22;690;51.454;7.194;2024-02-28T08:18:45;3.80;1.00
1391;DHT22;690;51.454;7.194;2024-02-28T08:21:12;3.90;1.00
1391;DHT22;690;51.454;7.194;2024-02-28T08:23:39;3.90;99.90
1391;DHT22;690;51.454;7.194;2024-02-28T08:26:07;3.90;99.90
1391;DHT22;690;51.454;7.194;2024-02-28T08:28:34;3.90;99.90
1391;DHT22;690;51.454;7.194;2024-02-28T08:31:01;3.90;99.90
1391;DHT22;690;51.454;7.194;2024-02-28T08:33:28;4.00;99.90
1391;DHT22;690;51.454;7.194;2024-02-28T08:35:55;4.10;99.90
1391;DHT22;690;51.454;7.194;2024-02-28T08:38:22;4.10;99.90
1391;DHT22;690;51.454;7.194;2024-02-28T08:40:49;4.10;1.00
1391;DHT22;690;51.454;7.194;2024-02-28T08:43:17;4.00;1.00
1391;DHT22;690;51.454;7.194;2024-02-28T08:45:44;4.00;1.00
1391;DHT22;690;51.454;7.194;2024-02-28T08:48:11;3.90;1.00
1391;DHT22;690;51.454;7.194;2024-02-28T08:50:38;4.00;1.00
1391;DHT22;690;51.454;7.194;2024-02-28T08:53:05;4.00;1.00
1391;DHT22;690;51.454;7.194;2024-02-28T08:55:32;4.10;1.00
1391;DHT22;690;51.454;7.194;2024-02-28T08:57:59;4.30;1.00
1391;DHT22;690;51.454;7.194;2024-02-28T09:00:27;4.30;1.00
1391;DHT22;690;51.454;7.194;2024-02-28T09:02:54;4.40;1.00
1391;DHT22;690;51.454;7.194;2024-02-28T09:05:21;4.40;1.00
1391;DHT22;690;51.454;7.194;2024-02-28T09:07:48;4.40;1.00
1391;DHT22;690;51.454;7.194;2024-02-28T09:10:17;4.40;99.90
1391;DHT22;690;51.454;7.194;2024-02-28T09:12:46;4.50;1.00
1391;DHT22;690;51.454;7.194;2024-02-28T09:15:13;4.70;1.00
1391;DHT22;690;51.454;7.194;2024-02-28T09:17:42;4.80;1.00
1391;DHT22;690;51.454;7.194;2024-02-28T09:20:10;5.00;1.00
1391;DHT22;690;51.454;7.194;2024-02-28T09:22:38;5.10;99.90
1391;DHT22;690;51.454;7.194;2024-02-28T09:25:06;5.20;99.90
1391;DHT22;690;51.454;7.194;2024-02-28T09:27:34;5.20;99.90
1391;DHT22;690;51.454;7.194;2024-02-28T09:30:01;5.10;99.90
1391;DHT22;690;51.454;7.194;2024-02-28T09:32:28;5.10;99.90
1391;DHT22;690;51.454;7.194;2024-02-28T09:34:56;5.10;99.90
1391;DHT22;690;51.454;7.194;2024-02-28T09:37:23;5.10;99.90
1391;DHT22;690;51.454;7.194;2024-02-28T09:39:50;5.20;99.90
1391;DHT22;690;51.454;7.194;2024-02-28T09:42:18;5.20;99.90
1391;DHT22;690;51.454;7.194;2024-02-28T09:44:45;5.20;36.90
1391;DHT22;690;51.454;7.194;2024-02-28T09:47:13;5.00;1.00
1391;DHT22;690;51.454;7.194;2024-02-28T09:49:42;5.00;1.00
1391;DHT22;690;51.454;7.194;2024-02-28T09:52:10;4.90;1.00
1391;DHT22;690;51.454;7.194;2024-02-28T09:54:37;4.90;1.00
1391;DHT22;690;51.454;7.194;2024-02-28T09:57:04;4.90;1.00
1391;DHT22;690;51.454;7.194;2024-02-28T09:59:32;5.00;1.00
1391;DHT22;690;51.454;7.194;2024-02-28T10:02:00;5.20;1.00
1391;DHT22;690;51.454;7.194;2024-02-28T10:04:29;5.40;1.00
1391;DHT22;690;51.454;7.194;2024-02-28T10:06:56;5.60;1.00
1391;DHT22;690;51.454;7.194;2024-02-28T10:09:24;5.80;1.00
1391;DHT22;690;51.454;7.194;2024-02-28T10:11:52;6.00;1.00
1391;DHT22;690;51.454;7.194;2024-02-28T10:14:19;6.10;1.00
1391;DHT22;690;51.454;7.194;2024-02-28T10:16:46;6.20;1.00
1391;DHT22;690;51.454;7.194;2024-02-28T10:19:13;6.40;1.00
1391;DHT22;690;51.454;7.194;2024-02-28T10:21:40;6.50;1.00
1391;DHT22;690;51.454;7.194;2024-02-28T10:24:07;6.70;1.00
1391;DHT22;690;51.454;7.194;2024-02-28T10:26:43;6.80;1.00
1391;DHT22;690;51.454;7.194;2024-02-28T10:29:10;6.90;1.00
1391;DHT22;690;51.454;7.194;2024-02-28T10:31:37;6.80;1.00
1391;DHT22;690;51.454;7.194;2024-02-28T10:34:04;6.70;1.00
1391;DHT22;690;51.454;7.194;2024-02-28T10:36:33;6.80;1.00
1391;DHT22;690;51.454;7.194;2024-02-28T10:39:01;6.80;1.00
1391;DHT22;690;51.454;7.194;2024-02-28T10:41:29;6.80;1.00
1391;DHT22;690;51.454;7.194;2024-02-28T10:43:58;7.00;1.00
1391;DHT22;690;51.454;7.194;2024-02-28T10:46:25;7.10;1.00
1391;DHT22;690;51.454;7.194;2024-02-28T10:48:52;7.20;1.00
1391;DHT22;690;51.454;7.194;2024-02-28T10:51:23;7.50;1.00
1391;DHT22;690;51.454;7.194;2024-02-28T10:53:56;7.70;1.00
1391;DHT22;690;51.454;7.194;2024-02-28T10:56:29;7.90;1.00
1391;DHT22;690;51.454;7.194;2024-02-28T10:58:59;7.90;1.00
1391;DHT22;690;51.454;7.194;2024-02-28T11:01:27;7.90;1.00
1391;DHT22;690;51.454;7.194;2024-02-28T11:03:55;7.70;1.00
1391;DHT22;690;51.454;7.194;2024-02-28T11:06:22;7.80;1.00
1391;DHT22;690;51.454;7.194;2024-02-28T11:08:51;8.00;1.00
1391;DHT22;690;51.454;7.194;2024-02-28T11:11:20;8.20;1.00
1391;DHT22;690;51.454;7.194;2024-02-28T11:13:54;8.40;1.00
1391;DHT22;690;51.454;7.194;2024-02-28T11:16:28;8.40;1.00
1391;DHT22;690;51.454;7.194;2024-02-28T11:18:55;8.60;1.00
1391;DHT22;690;51.454;7.194;2024-02-28T11:21:25;8.60;99.90
1391;DHT22;690;51.454;7.194;2024-02-28T11:23:56;8.70;99.90
1391;DHT22;690;51.454;7.194;2024-02-28T11:26:23;8.70;99.90
1391;DHT22;690;51.454;7.194;2024-02-28T11:28:51;8.90;99.90
1391;DHT22;690;51.454;7.194;2024-02-28T11:31:18;9.00;99.90
1391;DHT22;690;51.454;7.194;2024-02-28T11:33:46;9.20;99.90
1391;DHT22;690;51.454;7.194;2024-02-28T11:36:14;9.30;99.90
1391;DHT22;690;51.454;7.194;2024-02-28T11:38:41;9.30;99.90
1391;DHT22;690;51.454;7.194;2024-02-28T11:41:08;9.00;99.90
1391;DHT22;690;51.454;7.194;2024-02-28T11:43:35;9.00;99.90
1391;DHT22;690;51.454;7.194;2024-02-28T11:46:07;9.00;99.90
1391;DHT22;690;51.454;7.194;2024-02-28T11:48:34;8.90;99.90
1391;DHT22;690;51.454;7.194;2024-02-28T11:51:02;9.00;99.90
1391;DHT22;690;51.454;7.194;2024-02-28T11:53:29;9.00;99.90
1391;DHT22;690;51.454;7.194;2024-02-28T11:55:56;9.00;99.90
1391;DHT22;690;51.454;7.194;2024-02-28T11:58:23;9.10;99.90
1391;DHT22;690;51.454;7.194;2024-02-28T12:00:51;9.30;99.90
1391;DHT22;690;51.454;7.194;2024-02-28T12:03:21;9.60;99.90
1391;DHT22;690;51.454;7.194;2024-02-28T12:05:48;9.80;99.90
1391;DHT22;690;51.454;7.194;2024-02-28T12:08:19;10.00;99.90
1391;DHT22;690;51.454;7.194;2024-02-28T12:10:46;9.90;99.90
1391;DHT22;690;51.454;7.194;2024-02-28T12:13:16;9.80;99.90
1391;DHT22;690;51.454;7.194;2024-02-28T12:15:43;9.50;99.90
1391;DHT22;690;51.454;7.194;2024-02-28T12:18:11;9.30;99.90
1391;DHT22;690;51.454;7.194;2024-02-28T12:20:38;9.10;99.90
1391;DHT22;690;51.454;7.194;2024-02-28T12:23:04;9.00;99.90
1391;DHT22;690;51.454;7.194;2024-02-28T12:25:32;8.90;99.90
1391;DHT22;690;51.454;7.194;2024-02-28T12:28:00;8.90;99.90
1391;DHT22;690;51.454;7.194;2024-02-28T12:30:28;8.90;99.90
1391;DHT22;690;51.454;7.194;2024-02-28T12:32:55;8.90;99.90
1391;DHT22;690;51.454;7.194;2024-02-28T12:35:22;8.80;99.90
1391;DHT22;690;51.454;7.194;2024-02-28T12:37:48;8.80;99.90
1391;DHT22;690;51.454;7.194;2024-02-28T12:40:16;8.80;99.90
1391;DHT22;690;51.454;7.194;2024-02-28T12:42:44;8.80;99.90
1391;DHT22;690;51.454;7.194;2024-02-28T12:45:11;8.90;99.90
1391;DHT22;690;51.454;7.194;2024-02-28T12:47:39;9.00;99.90
1391;DHT22;690;51.454;7.194;2024-02-28T12:50:07;9.10;99.90
1391;DHT22;690;51.454;7.194;2024-02-28T12:52:35;9.30;99.90
1391;DHT22;690;51.454;7.194;2024-02-28T12:55:02;9.40;99.90
1391;DHT22;690;51.454;7.194;2024-02-28T12:57:29;9.50;99.90
1391;DHT22;690;51.454;7.194;2024-02-28T12:59:57;9.60;99.90
1391;DHT22;690;51.454;7.194;2024-02-28T13:02:24;9.50;99.90
1391;DHT22;690;51.454;7.194;2024-02-28T13:04:51;9.40;99.90
1391;DHT22;690;51.454;7.194;2024-02-28T13:07:18;9.70;99.90
1391;DHT22;690;51.454;7.194;2024-02-28T13:09:48;9.90;99.90
1391;DHT22;690;51.454;7.194;2024-02-28T13:12:15;9.90;99.90
1391;DHT22;690;51.454;7.194;2024-02-28T13:14:42;10.00;99.90
1391;DHT22;690;51.454;7.194;2024-02-28T13:17:11;10.10;99.90
1391;DHT22;690;51.454;7.194;2024-02-28T13:19:38;10.20;99.90
1391;DHT22;690;51.454;7.194;2024-02-28T13:22:05;10.10;99.90
1391;DHT22;690;51.454;7.194;2024-02-28T13:24:32;10.00;99.90
1391;DHT22;690;51.454;7.194;2024-02-28T13:27:01;9.90;99.90
1391;DHT22;690;51.454;7.194;2024-02-28T13:29:28;9.80;99.90
1391;DHT22;690;51.454;7.194;2024-02-28T13:31:56;9.70;99.90
1391;DHT22;690;51.454;7.194;2024-02-28T13:34:25;9.60;99.90
1391;DHT22;690;51.454;7.194;2024-02-28T13:36:52;9.60;99.90
1391;DHT22;690;51.454;7.194;2024-02-28T13:39:19;9.70;99.90
1391;DHT22;690;51.454;7.194;2024-02-28T13:41:46;9.80;99.90
1391;DHT22;690;51.454;7.194;2024-02-28T13:44:16;10.00;99.90
1391;DHT22;690;51.454;7.194;2024-02-28T13:46:44;10.10;99.90
1391;DHT22;690;51.454;7.194;2024-02-28T13:49:11;10.30;99.90
1391;DHT22;690;51.454;7.194;2024-02-28T13:51:41;10.50;99.90
1391;DHT22;690;51.454;7.194;2024-02-28T13:54:11;10.50;99.90
1391;DHT22;690;51.454;7.194;2024-02-28T13:56:38;10.50;99.90
1391;DHT22;690;51.454;7.194;2024-02-28T13:59:08;10.30;99.90
1391;DHT22;690;51.454;7.194;2024-02-28T14:01:35;10.20;99.90
1391;DHT22;690;51.454;7.194;2024-02-28T14:04:03;10.30;99.90
1391;DHT22;690;51.454;7.194;2024-02-28T14:06:30;10.50;99.90
1391;DHT22;690;51.454;7.194;2024-02-28T14:08:58;10.60;99.90
1391;DHT22;690;51.454;7.194;2024-02-28T14:11:25;10.60;99.90
1391;DHT22;690;51.454;7.194;2024-02-28T14:13:52;10.50;99.90
1391;DHT22;690;51.454;7.194;2024-02-28T14:16:19;10.50;99.90
1391;DHT22;690;51.454;7.194;2024-02-28T14:18:46;10.50;99.90
1391;DHT22;690;51.454;7.194;2024-02-28T14:21:13;10.50;99.90
1391;DHT22;690;51.454;7.194;2024-02-28T14:23:40;10.50;99.90
1391;DHT22;690;51.454;7.194;2024-02-28T14:26:09;10.50;99.90
1391;DHT22;690;51.454;7.194;2024-02-28T14:28:36;10.50;99.90
1391;DHT22;690;51.454;7.194;2024-02-28T14:31:04;10.40;99.90
1391;DHT22;690;51.454;7.194;2024-02-28T14:33:31;10.20;99.90
1391;DHT22;690;51.454;7.194;2024-02-28T14:35:58;10.10;99.90
1391;DHT22;690;51.454;7.194;2024-02-28T14:38:25;10.10;99.90
1391;DHT22;690;51.454;7.194;2024-02-28T14:40:52;9.90;99.90
1391;DHT22;690;51.454;7.194;2024-02-28T14:43:21;10.00;99.90
1391;DHT22;690;51.454;7.194;2024-02-28T14:45:48;10.10;99.90
1391;DHT22;690;51.454;7.194;2024-02-28T14:48:14;10.10;99.90
1391;DHT22;690;51.454;7.194;2024-02-28T14:50:41;10.20;99.90
1391;DHT22;690;51.454;7.194;2024-02-28T14:53:08;10.20;99.90
1391;DHT22;690;51.454;7.194;2024-02-28T14:55:36;10.20;99.90
1391;DHT22;690;51.454;7.194;2024-02-28T14:58:03;10.20;99.90
1391;DHT22;690;51.454;7.194;2024-02-28T15:00:31;10.20;99.90
1391;DHT22;690;51.454;7.194;2024-02-28T15:02:58;10.10;99.90
1391;DHT22;690;51.454;7.194;2024-02-28T15:05:25;10.00;99.90
1391;DHT22;690;51.454;7.194;2024-02-28T15:07:52;9.90;99.90
1391;DHT22;690;51.454;7.194;2024-02-28T15:10:20;9.80;99.90
1391;DHT22;690;51.454;7.194;2024-02-28T15:12:47;9.70;99.90
1391;DHT22;690;51.454;7.194;2024-02-28T15:15:14;9.60;99.90
1391;DHT22;690;51.454;7.194;2024-02-28T15:17:42;9.60;99.90
1391;DHT22;690;51.454;7.194;2024-02-28T15:20:10;9.60;99.90
1391;DHT22;690;51.454;7.194;2024-02-28T15:22:37;9.50;99.90
1391;DHT22;690;51.454;7.194;2024-02-28T15:25:05;9.50;99.90
1391;DHT22;690;51.454;7.194;2024-02-28T15:27:32;9.50;99.90
1391;DHT22;690;51.454;7.194;2024-02-28T15:29:59;9.50;99.90
1391;DHT22;690;51.454;7.194;2024-02-28T15:32:26;9.50;99.90
1391;DHT22;690;51.454;7.194;2024-02-28T15:34:54;9.50;99.90
1391;DHT22;690;51.454;7.194;2024-02-28T15:37:21;9.50;99.90
1391;DHT22;690;51.454;7.194;2024-02-28T15:39:48;9.50;99.90
1391;DHT22;690;51.454;7.194;2024-02-28T15:42:15;9.40;99.90
1391;DHT22;690;51.454;7.194;2024-02-28T15:44:43;9.40;99.90
1391;DHT22;690;51.454;7.194;2024-02-28T15:47:10;9.30;99.90
1391;DHT22;690;51.454;7.194;2024-02-28T15:49:37;9.20;99.90
1391;DHT22;690;51.454;7.194;2024-02-28T15:52:05;9.10;99.90
1391;DHT22;690;51.454;7.194;2024-02-28T15:54:36;9.00;99.90
1391;DHT22;690;51.454;7.194;2024-02-28T15:57:04;9.00;99.90
1391;DHT22;690;51.454;7.194;2024-02-28T15:59:30;9.00;99.90
1391;DHT22;690;51.454;7.194;2024-02-28T16:01:57;9.00;99.90
1391;DHT22;690;51.454;7.194;2024-02-28T16:04:26;9.00;99.90
1391;DHT22;690;51.454;7.194;2024-02-28T16:06:52;8.90;99.90
1391;DHT22;690;51.454;7.194;2024-02-28T16:09:21;8.90;99.90
1391;DHT22;690;51.454;7.194;2024-02-28T16:11:48;8.90;99.90
1391;DHT22;690;51.454;7.194;2024-02-28T16:14:15;8.80;99.90
1391;DHT22;690;51.454;7.194;2024-02-28T16:16:42;8.80;99.90
1391;DHT22;690;51.454;7.194;2024-02-28T16:19:09;8.70;99.90
1391;DHT22;690;51.454;7.194;2024-02-28T16:21:36;8.60;99.90
1391;DHT22;690;51.454;7.194;2024-02-28T16:24:03;8.60;99.90
1391;DHT22;690;51.454;7.194;2024-02-28T16:26:31;8.50;99.90
1391;DHT22;690;51.454;7.194;2024-02-28T16:28:58;8.40;99.90
1391;DHT22;690;51.454;7.194;2024-02-28T16:31:25;8.40;99.90
1391;DHT22;690;51.454;7.194;2024-02-28T16:33:52;8.40;99.90
1391;DHT22;690;51.454;7.194;2024-02-28T16:36:19;8.40;99.90
1391;DHT22;690;51.454;7.194;2024-02-28T16:38:47;8.40;99.90